Time,TemperatureF,DewpointF,PressureIn,WindDirection,WindDirectionDegrees,WindSpeedMPH,WindSpeedGustMPH,Humidity,HourlyPrecipIn,Conditions,Clouds,dailyrainin,SolarRadiationWatts/m^2,SoftwareType,DateUTC
2013-01-23 00:02:00,41.0,10.0,30.24,NW,316,3.0,5.0,27,-99.99,,,-99.99,0.000000,,2013-01-23 07:02:00,
2013-01-23 00:12:00,43.0,11.0,30.25,SSW,198,1.0,3.0,26,-99.99,,,-99.99,0.000000,,2013-01-23 07:12:00,
2013-01-23 00:22:00,43.0,11.0,30.25,SSW,198,1.0,3.0,26,-99.99,,,-99.99,0.000000,,2013-01-23 07:22:00,
2013-01-23 00:33:00,43.0,10.0,30.25,NE,50,1.0,3.0,25,-99.99,,,-99.99,0.000000,,2013-01-23 07:33:00,
2013-01-23 00:42:00,44.0,10.0,30.26,NE,41,1.0,3.0,24,-99.99,,,-99.99,0.000000,,2013-01-23 07:42:00,
2013-01-23 00:53:00,44.0,10.0,30.26,NE,41,1.0,3.0,24,-99.99,,,-99.99,0.000000,,2013-01-23 07:53:00,
2013-01-23 01:02:00,45.0,9.0,30.26,North,357,1.0,2.0,22,-99.99,,,-99.99,0.000000,,2013-01-23 08:02:00,
2013-01-23 01:13:00,42.0,12.0,30.26,West,272,2.0,2.0,28,-99.99,,,-99.99,0.000000,,2013-01-23 08:13:00,
2013-01-23 01:22:00,42.0,12.0,30.26,West,272,2.0,2.0,28,-99.99,,,-99.99,0.000000,,2013-01-23 08:22:00,
2013-01-23 01:33:00,42.0,12.0,30.26,West,272,2.0,2.0,28,-99.99,,,-99.99,0.000000,,2013-01-23 08:33:00,
2013-01-23 01:42:00,36.0,15.0,30.25,WSW,257,4.0,5.0,42,-99.99,,,-99.99,0.000000,,2013-01-23 08:42:00,
2013-01-23 01:53:00,36.0,15.0,30.26,WSW,243,3.0,5.0,41,-99.99,,,-99.99,0.000000,,2013-01-23 08:53:00,
2013-01-23 02:03:00,36.0,15.0,30.26,WSW,243,3.0,5.0,41,-99.99,,,-99.99,0.000000,,2013-01-23 09:03:00,
2013-01-23 02:12:00,40.0,12.0,30.26,South,180,6.0,7.0,31,-99.99,,,-99.99,0.000000,,2013-01-23 09:12:00,
2013-01-23 02:22:00,40.0,12.0,30.26,South,180,6.0,7.0,31,-99.99,,,-99.99,0.000000,,2013-01-23 09:22:00,
2013-01-23 02:32:00,41.0,11.0,30.26,SSE,150,4.0,7.0,28,-99.99,,,-99.99,0.000000,,2013-01-23 09:32:00,
2013-01-23 02:43:00,42.0,11.0,30.26,South,174,2.0,4.0,26,-99.99,,,-99.99,0.000000,,2013-01-23 09:43:00,
2013-01-23 02:53:00,42.0,11.0,30.26,South,174,2.0,4.0,26,-99.99,,,-99.99,0.000000,,2013-01-23 09:53:00,
2013-01-23 03:03:00,44.0,10.0,30.26,SE,141,2.0,4.0,25,-99.99,,,-99.99,0.000000,,2013-01-23 10:03:00,
2013-01-23 03:12:00,42.0,11.0,30.26,South,186,1.0,3.0,27,-99.99,,,-99.99,0.000000,,2013-01-23 10:12:00,
2013-01-23 03:23:00,42.0,11.0,30.26,South,186,1.0,3.0,27,-99.99,,,-99.99,0.000000,,2013-01-23 10:23:00,
2013-01-23 03:33:00,43.0,10.0,30.27,SW,216,2.0,4.0,26,-99.99,,,-99.99,0.000000,,2013-01-23 10:33:00,
2013-01-23 03:43:00,40.0,11.0,30.27,SSW,200,2.0,4.0,30,-99.99,,,-99.99,0.000000,,2013-01-23 10:43:00,
2013-01-23 03:53:00,39.0,11.0,30.27,WSW,246,4.0,5.0,31,-99.99,,,-99.99,0.000000,,2013-01-23 10:53:00,
2013-01-23 04:02:00,39.0,11.0,30.27,WSW,246,4.0,5.0,31,-99.99,,,-99.99,0.000000,,2013-01-23 11:02:00,
2013-01-23 04:12:00,37.0,12.0,30.27,WNW,285,7.0,10.0,35,-99.99,,,-99.99,0.000000,,2013-01-23 11:12:00,
2013-01-23 04:23:00,37.0,12.0,30.27,WNW,285,7.0,10.0,35,-99.99,,,-99.99,0.000000,,2013-01-23 11:23:00,
2013-01-23 04:33:00,36.0,14.0,30.26,West,266,6.0,8.0,39,-99.99,,,-99.99,0.000000,,2013-01-23 11:33:00,
2013-01-23 04:43:00,38.0,13.0,30.26,WSW,253,5.0,6.0,36,-99.99,,,-99.99,0.000000,,2013-01-23 11:43:00,
2013-01-23 04:53:00,38.0,13.0,30.26,WSW,253,5.0,6.0,36,-99.99,,,-99.99,0.000000,,2013-01-23 11:53:00,
2013-01-23 05:03:00,41.0,13.0,30.26,SW,232,4.0,5.0,32,-99.99,,,-99.99,0.000000,,2013-01-23 12:03:00,
2013-01-23 05:12:00,39.0,13.0,30.27,SW,217,3.0,6.0,34,-99.99,,,-99.99,0.000000,,2013-01-23 12:12:00,
2013-01-23 05:22:00,39.0,13.0,30.27,SW,217,3.0,6.0,34,-99.99,,,-99.99,0.000000,,2013-01-23 12:22:00,
2013-01-23 05:33:00,36.0,11.0,30.28,SE,126,2.0,7.0,35,-99.99,,,-99.99,0.000000,,2013-01-23 12:33:00,
2013-01-23 05:43:00,37.0,11.0,30.28,WNW,282,3.0,4.0,34,-99.99,,,-99.99,0.000000,,2013-01-23 12:43:00,
2013-01-23 05:53:00,37.0,11.0,30.28,WNW,282,3.0,4.0,34,-99.99,,,-99.99,0.000000,,2013-01-23 12:53:00,
2013-01-23 06:03:00,34.0,13.0,30.28,WNW,299,4.0,6.0,40,-99.99,,,-99.99,0.000000,,2013-01-23 13:03:00,
2013-01-23 06:13:00,33.0,14.0,30.29,SW,222,2.0,4.0,44,-99.99,,,-99.99,0.000000,,2013-01-23 13:13:00,
2013-01-23 06:23:00,33.0,14.0,30.29,SW,222,2.0,4.0,44,-99.99,,,-99.99,0.000000,,2013-01-23 13:23:00,
2013-01-23 06:33:00,36.0,12.0,30.29,WSW,253,1.0,3.0,37,-99.99,,,-99.99,0.000000,,2013-01-23 13:33:00,
2013-01-23 06:42:00,39.0,11.0,30.29,West,269,2.0,3.0,32,-99.99,,,-99.99,0.000000,,2013-01-23 13:42:00,
2013-01-23 06:53:00,39.0,11.0,30.29,West,269,2.0,3.0,32,-99.99,,,-99.99,0.000000,,2013-01-23 13:53:00,
2013-01-23 07:02:00,38.0,11.0,30.30,WSW,242,2.0,3.0,33,-99.99,,,-99.99,0.000000,,2013-01-23 14:02:00,
2013-01-23 07:12:00,37.0,12.0,30.30,South,188,1.0,3.0,34,-99.99,,,-99.99,0.000000,,2013-01-23 14:12:00,
2013-01-23 07:23:00,37.0,12.0,30.30,South,188,1.0,3.0,34,-99.99,,,-99.99,0.000000,,2013-01-23 14:23:00,
2013-01-23 07:33:00,36.0,11.0,30.30,SE,130,3.0,6.0,34,-99.99,,,-99.99,1.390000,,2013-01-23 14:33:00,
2013-01-23 07:43:00,35.0,11.0,30.30,NNE,13,1.0,3.0,35,-99.99,,,-99.99,8.370000,,2013-01-23 14:43:00,
2013-01-23 07:53:00,35.0,11.0,30.30,NNE,13,1.0,3.0,35,-99.99,,,-99.99,8.370000,,2013-01-23 14:53:00,
2013-01-23 08:03:00,35.0,13.0,30.30,West,281,3.0,5.0,38,-99.99,,,-99.99,39.049999,,2013-01-23 15:03:00,
2013-01-23 08:12:00,35.0,13.0,30.30,West,281,3.0,5.0,38,-99.99,,,-99.99,39.049999,,2013-01-23 15:12:00,
2013-01-23 08:23:00,35.0,13.0,30.30,West,281,3.0,5.0,38,-99.99,,,-99.99,39.049999,,2013-01-23 15:23:00,
2013-01-23 08:33:00,42.0,15.0,30.31,WNW,292,3.0,4.0,33,-99.99,,,-99.99,149.229996,,2013-01-23 15:33:00,
2013-01-23 08:43:00,46.0,17.0,30.31,West,263,2.0,4.0,30,-99.99,,,-99.99,198.740005,,2013-01-23 15:43:00,
2013-01-23 08:53:00,46.0,17.0,30.31,West,263,2.0,4.0,30,-99.99,,,-99.99,198.740005,,2013-01-23 15:53:00,
2013-01-23 09:03:00,47.0,15.0,30.32,ESE,117,3.0,5.0,27,-99.99,,,-99.99,247.550003,,2013-01-23 16:03:00,
2013-01-23 09:12:00,44.0,11.0,30.34,ENE,76,3.0,5.0,25,-99.99,,,-99.99,297.760010,,2013-01-23 16:12:00,
2013-01-23 09:23:00,44.0,11.0,30.34,ENE,76,3.0,5.0,25,-99.99,,,-99.99,297.760010,,2013-01-23 16:23:00,
2013-01-23 09:33:00,44.0,11.0,30.34,SW,233,2.0,3.0,26,-99.99,,,-99.99,346.570007,,2013-01-23 16:33:00,
2013-01-23 09:42:00,47.0,13.0,30.35,West,262,2.0,3.0,25,-99.99,,,-99.99,393.989990,,2013-01-23 16:42:00,
2013-01-23 09:53:00,47.0,13.0,30.35,West,262,2.0,3.0,25,-99.99,,,-99.99,393.989990,,2013-01-23 16:53:00,
2013-01-23 10:03:00,50.0,11.0,30.35,ENE,73,1.0,3.0,20,-99.99,,,-99.99,437.929993,,2013-01-23 17:03:00,
2013-01-23 10:12:00,50.0,10.0,30.36,East,87,4.0,6.0,19,-99.99,,,-99.99,478.369995,,2013-01-23 17:12:00,
2013-01-23 10:23:00,50.0,10.0,30.36,East,87,4.0,6.0,19,-99.99,,,-99.99,478.369995,,2013-01-23 17:23:00,
2013-01-23 10:33:00,50.0,10.0,30.36,East,97,4.0,6.0,19,-99.99,,,-99.99,516.030029,,2013-01-23 17:33:00,
2013-01-23 10:42:00,50.0,10.0,30.37,East,86,5.0,7.0,19,-99.99,,,-99.99,551.590027,,2013-01-23 17:42:00,
2013-01-23 10:53:00,50.0,10.0,30.37,East,86,5.0,7.0,19,-99.99,,,-99.99,551.590027,,2013-01-23 17:53:00,
2013-01-23 11:03:00,50.0,10.0,30.37,East,86,4.0,7.0,18,-99.99,,,-99.99,582.969971,,2013-01-23 18:03:00,
2013-01-23 11:12:00,52.0,10.0,30.36,ESE,103,4.0,7.0,17,-99.99,,,-99.99,608.070007,,2013-01-23 18:12:00,
2013-01-23 11:23:00,52.0,10.0,30.36,ESE,103,4.0,7.0,17,-99.99,,,-99.99,608.070007,,2013-01-23 18:23:00,
2013-01-23 11:33:00,54.0,10.0,30.35,ESE,115,5.0,8.0,16,-99.99,,,-99.99,633.880005,,2013-01-23 18:33:00,
2013-01-23 11:43:00,56.0,9.0,30.34,SE,124,6.0,9.0,15,-99.99,,,-99.99,654.099976,,2013-01-23 18:43:00,
2013-01-23 11:53:00,56.0,9.0,30.34,SE,124,6.0,9.0,15,-99.99,,,-99.99,654.099976,,2013-01-23 18:53:00,
2013-01-23 12:03:00,57.0,9.0,30.34,SE,127,6.0,9.0,14,-99.99,,,-99.99,667.349976,,2013-01-23 19:03:00,
2013-01-23 12:13:00,59.0,9.0,30.33,ESE,115,6.0,9.0,13,-99.99,,,-99.99,678.510010,,2013-01-23 19:13:00,
2013-01-23 12:23:00,59.0,9.0,30.33,ESE,115,6.0,9.0,13,-99.99,,,-99.99,678.510010,,2013-01-23 19:23:00,
2013-01-23 12:33:00,61.0,9.0,30.32,ESE,114,7.0,10.0,12,-99.99,,,-99.99,685.479980,,2013-01-23 19:33:00,
2013-01-23 12:43:00,62.0,9.0,30.31,ESE,108,7.0,11.0,12,-99.99,,,-99.99,687.570007,,2013-01-23 19:43:00,
2013-01-23 12:53:00,62.0,9.0,30.31,ESE,108,7.0,11.0,12,-99.99,,,-99.99,687.570007,,2013-01-23 19:53:00,
2013-01-23 13:03:00,64.0,10.0,30.30,ESE,116,8.0,13.0,11,-99.99,,,-99.99,686.179993,,2013-01-23 20:03:00,
2013-01-23 13:13:00,65.0,11.0,30.29,ESE,120,9.0,13.0,11,-99.99,,,-99.99,680.599976,,2013-01-23 20:13:00,
2013-01-23 13:23:00,65.0,11.0,30.29,ESE,120,9.0,13.0,11,-99.99,,,-99.99,680.599976,,2013-01-23 20:23:00,
2013-01-23 13:33:00,66.0,11.0,30.28,SE,138,7.0,13.0,11,-99.99,,,-99.99,670.830017,,2013-01-23 20:33:00,
2013-01-23 13:43:00,67.0,11.0,30.27,ESE,123,6.0,10.0,11,-99.99,,,-99.99,654.799988,,2013-01-23 20:43:00,
2013-01-23 13:54:00,67.0,11.0,30.27,ESE,123,6.0,10.0,11,-99.99,,,-99.99,654.799988,,2013-01-23 20:54:00,
2013-01-23 14:03:00,67.0,11.0,30.27,SE,129,7.0,11.0,11,-99.99,,,-99.99,635.969971,,2013-01-23 21:03:00,
2013-01-23 14:12:00,67.0,11.0,30.26,ESE,120,5.0,9.0,11,-99.99,,,-99.99,613.650024,,2013-01-23 21:12:00,
2013-01-23 14:23:00,67.0,11.0,30.26,ESE,120,5.0,9.0,11,-99.99,,,-99.99,613.650024,,2013-01-23 21:23:00,
2013-01-23 14:33:00,67.0,11.0,30.26,SE,125,6.0,10.0,11,-99.99,,,-99.99,579.479980,,2013-01-23 21:33:00,
2013-01-23 14:42:00,68.0,12.0,30.25,ESE,112,5.0,9.0,11,-99.99,,,-99.99,564.140015,,2013-01-23 21:42:00,
2013-01-23 14:53:00,68.0,12.0,30.25,ESE,112,5.0,9.0,11,-99.99,,,-99.99,564.140015,,2013-01-23 21:53:00,
2013-01-23 15:02:00,68.0,12.0,30.25,ESE,111,3.0,6.0,11,-99.99,,,-99.99,497.200012,,2013-01-23 22:02:00,
2013-01-23 15:12:00,68.0,12.0,30.25,ESE,111,3.0,6.0,11,-99.99,,,-99.99,497.200012,,2013-01-23 22:12:00,
2013-01-23 15:23:00,68.0,12.0,30.25,ESE,111,3.0,6.0,11,-99.99,,,-99.99,497.200012,,2013-01-23 22:23:00,
2013-01-23 15:33:00,69.0,13.0,30.25,East,84,3.0,6.0,11,-99.99,,,-99.99,386.320007,,2013-01-23 22:33:00,
2013-01-23 15:42:00,68.0,12.0,30.25,ENE,62,2.0,5.0,11,-99.99,,,-99.99,324.260010,,2013-01-23 22:42:00,
2013-01-23 15:53:00,68.0,12.0,30.25,ENE,62,2.0,5.0,11,-99.99,,,-99.99,324.260010,,2013-01-23 22:53:00,
2013-01-23 16:03:00,69.0,13.0,30.25,East,95,1.0,3.0,11,-99.99,,,-99.99,266.380005,,2013-01-23 23:03:00,
2013-01-23 16:12:00,69.0,13.0,30.25,South,191,2.0,5.0,11,-99.99,,,-99.99,243.369995,,2013-01-23 23:12:00,
2013-01-23 16:23:00,69.0,13.0,30.25,South,191,2.0,5.0,11,-99.99,,,-99.99,243.369995,,2013-01-23 23:23:00,
2013-01-23 16:33:00,69.0,14.0,30.25,SSW,199,3.0,5.0,11,-99.99,,,-99.99,205.710007,,2013-01-23 23:33:00,
2013-01-23 16:43:00,69.0,14.0,30.25,SSW,199,3.0,5.0,11,-99.99,,,-99.99,205.710007,,2013-01-23 23:43:00,
2013-01-23 16:53:00,69.0,14.0,30.25,SSW,199,3.0,5.0,11,-99.99,,,-99.99,205.710007,,2013-01-23 23:53:00,
2013-01-23 17:03:00,64.0,18.0,30.25,WSW,254,4.0,5.0,16,-99.99,,,-99.99,108.089996,,2013-01-24 00:03:00,
2013-01-23 17:12:00,63.0,17.0,30.24,West,259,3.0,4.0,16,-99.99,,,-99.99,70.430000,,2013-01-24 00:12:00,
2013-01-23 17:22:00,63.0,17.0,30.24,West,259,3.0,4.0,16,-99.99,,,-99.99,70.430000,,2013-01-24 00:22:00,
2013-01-23 17:32:00,61.0,17.0,30.24,West,260,3.0,4.0,18,-99.99,,,-99.99,50.209999,,2013-01-24 00:32:00,
2013-01-23 17:42:00,59.0,18.0,30.24,West,261,3.0,4.0,20,-99.99,,,-99.99,32.080002,,2013-01-24 00:42:00,
2013-01-23 17:53:00,59.0,18.0,30.24,West,261,3.0,4.0,20,-99.99,,,-99.99,32.080002,,2013-01-24 00:53:00,
2013-01-23 18:03:00,58.0,18.0,30.24,WSW,237,3.0,4.0,21,-99.99,,,-99.99,9.760000,,2013-01-24 01:03:00,
2013-01-23 18:12:00,56.0,18.0,30.24,NNW,347,4.0,6.0,21,-99.99,,,-99.99,2.790000,,2013-01-24 01:12:00,
2013-01-23 18:23:00,56.0,18.0,30.24,NNW,347,4.0,6.0,21,-99.99,,,-99.99,2.790000,,2013-01-24 01:23:00,
2013-01-23 18:33:00,53.0,18.0,30.24,NW,323,5.0,7.0,25,-99.99,,,-99.99,0.000000,,2013-01-24 01:33:00,
2013-01-23 18:42:00,50.0,18.0,30.25,WNW,289,8.0,10.0,28,-99.99,,,-99.99,0.000000,,2013-01-24 01:42:00,
2013-01-23 18:52:00,50.0,18.0,30.25,WNW,289,8.0,10.0,28,-99.99,,,-99.99,0.000000,,2013-01-24 01:52:00,
2013-01-23 19:02:00,48.0,18.0,30.25,WNW,288,7.0,10.0,30,-99.99,,,-99.99,0.000000,,2013-01-24 02:02:00,
2013-01-23 19:12:00,48.0,18.0,30.25,WNW,289,6.0,8.0,29,-99.99,,,-99.99,0.000000,,2013-01-24 02:12:00,
2013-01-23 19:22:00,48.0,18.0,30.25,WNW,289,6.0,8.0,29,-99.99,,,-99.99,0.000000,,2013-01-24 02:22:00,
2013-01-23 19:33:00,48.0,17.0,30.25,WNW,292,5.0,6.0,29,-99.99,,,-99.99,0.000000,,2013-01-24 02:33:00,
2013-01-23 19:42:00,48.0,17.0,30.25,WNW,292,5.0,6.0,29,-99.99,,,-99.99,0.000000,,2013-01-24 02:42:00,
2013-01-23 19:52:00,48.0,17.0,30.25,WNW,292,5.0,6.0,29,-99.99,,,-99.99,0.000000,,2013-01-24 02:52:00,
2013-01-23 20:02:00,47.0,18.0,30.25,West,263,3.0,5.0,30,-99.99,,,-99.99,0.000000,,2013-01-24 03:02:00,
2013-01-23 20:12:00,47.0,19.0,30.25,WSW,241,4.0,4.0,32,-99.99,,,-99.99,0.000000,,2013-01-24 03:12:00,
2013-01-23 20:22:00,47.0,19.0,30.25,WSW,241,4.0,4.0,32,-99.99,,,-99.99,0.000000,,2013-01-24 03:22:00,
2013-01-23 20:33:00,47.0,19.0,30.25,WSW,241,4.0,4.0,32,-99.99,,,-99.99,0.000000,,2013-01-24 03:33:00,
2013-01-23 20:43:00,48.0,17.0,30.25,WSW,257,5.0,6.0,27,-99.99,,,-99.99,0.000000,,2013-01-24 03:43:00,
2013-01-23 20:53:00,48.0,17.0,30.25,WSW,257,5.0,6.0,27,-99.99,,,-99.99,0.000000,,2013-01-24 03:53:00,
2013-01-23 21:02:00,48.0,16.0,30.25,West,259,5.0,6.0,27,-99.99,,,-99.99,0.000000,,2013-01-24 04:02:00,
2013-01-23 21:12:00,50.0,17.0,30.24,WSW,251,5.0,7.0,26,-99.99,,,-99.99,0.000000,,2013-01-24 04:12:00,
2013-01-23 21:22:00,50.0,17.0,30.24,WSW,251,5.0,7.0,26,-99.99,,,-99.99,0.000000,,2013-01-24 04:22:00,
2013-01-23 21:32:00,48.0,17.0,30.25,West,260,5.0,7.0,28,-99.99,,,-99.99,0.000000,,2013-01-24 04:32:00,
2013-01-23 21:42:00,48.0,17.0,30.25,WSW,258,5.0,7.0,28,-99.99,,,-99.99,0.000000,,2013-01-24 04:42:00,
2013-01-23 21:53:00,48.0,17.0,30.25,WSW,258,5.0,7.0,28,-99.99,,,-99.99,0.000000,,2013-01-24 04:53:00,
2013-01-23 22:03:00,48.0,17.0,30.25,WSW,251,5.0,7.0,29,-99.99,,,-99.99,0.000000,,2013-01-24 05:03:00,
2013-01-23 22:12:00,48.0,17.0,30.25,WSW,251,5.0,7.0,29,-99.99,,,-99.99,0.000000,,2013-01-24 05:12:00,
2013-01-23 22:22:00,48.0,17.0,30.25,WSW,251,5.0,7.0,29,-99.99,,,-99.99,0.000000,,2013-01-24 05:22:00,
2013-01-23 22:33:00,47.0,17.0,30.25,WSW,250,5.0,7.0,30,-99.99,,,-99.99,0.000000,,2013-01-24 05:33:00,
2013-01-23 22:42:00,47.0,17.0,30.26,WSW,255,5.0,6.0,30,-99.99,,,-99.99,0.000000,,2013-01-24 05:42:00,
2013-01-23 22:53:00,47.0,17.0,30.26,WSW,255,5.0,6.0,30,-99.99,,,-99.99,0.000000,,2013-01-24 05:53:00,
2013-01-23 23:02:00,46.0,16.0,30.27,East,87,3.0,6.0,29,-99.99,,,-99.99,0.000000,,2013-01-24 06:02:00,
2013-01-23 23:12:00,46.0,16.0,30.27,ENE,69,2.0,5.0,29,-99.99,,,-99.99,0.000000,,2013-01-24 06:12:00,
2013-01-23 23:22:00,46.0,16.0,30.27,ENE,69,2.0,5.0,29,-99.99,,,-99.99,0.000000,,2013-01-24 06:22:00,
2013-01-23 23:32:00,44.0,16.0,30.28,NNW,330,5.0,6.0,31,-99.99,,,-99.99,0.000000,,2013-01-24 06:32:00,
2013-01-23 23:42:00,44.0,16.0,30.28,NNW,330,5.0,6.0,31,-99.99,,,-99.99,0.000000,,2013-01-24 06:42:00,
2013-01-23 23:52:00,44.0,16.0,30.28,NNW,330,5.0,6.0,31,-99.99,,,-99.99,0.000000,,2013-01-24 06:52:00,